sensor_id;sensor_type;location;lat;lon;timestamp;temperature;humidity
32706;DHT22;19094;50.972;3.538;2024-01-30T00:01:44;13.40;68.60
32706;DHT22;19094;50.972;3.538;2024-01-30T00:04:10;13.40;68.50
32706;DHT22;19094;50.972;3.538;2024-01-30T00:06:36;13.40;68.50
32706;DHT22;19094;50.972;3.538;2024-01-30T00:09:01;13.40;68.50
32706;DHT22;19094;50.972;3.538;2024-01-30T00:11:27;13.40;68.50
32706;DHT22;19094;50.972;3.538;2024-01-30T00:13:54;13.40;68.70
32706;DHT22;19094;50.972;3.538;2024-01-30T00:16:22;13.40;68.50
32706;DHT22;19094;50.972;3.538;2024-01-30T00:18:52;13.40;68.50
32706;DHT22;19094;50.972;3.538;2024-01-30T00:21:18;13.40;68.60
32706;DHT22;19094;50.972;3.538;2024-01-30T00:23:44;13.40;68.60
32706;DHT22;19094;50.972;3.538;2024-01-30T00:26:10;13.40;68.60
32706;DHT22;19094;50.972;3.538;2024-01-30T00:28:37;13.40;68.60
32706;DHT22;19094;50.972;3.538;2024-01-30T00:31:03;13.40;68.60
32706;DHT22;19094;50.972;3.538;2024-01-30T00:33:29;13.40;68.50
32706;DHT22;19094;50.972;3.538;2024-01-30T00:35:55;13.50;68.40
32706;DHT22;19094;50.972;3.538;2024-01-30T00:38:21;13.50;68.40
32706;DHT22;19094;50.972;3.538;2024-01-30T00:40:48;13.40;68.50
32706;DHT22;19094;50.972;3.538;2024-01-30T00:43:14;13.40;68.60
32706;DHT22;19094;50.972;3.538;2024-01-30T00:45:41;13.40;68.60
32706;DHT22;19094;50.972;3.538;2024-01-30T00:48:07;13.40;68.60
32706;DHT22;19094;50.972;3.538;2024-01-30T00:50:32;13.40;68.60
32706;DHT22;19094;50.972;3.538;2024-01-30T00:52:58;13.40;68.60
32706;DHT22;19094;50.972;3.538;2024-01-30T00:55:24;13.40;68.60
32706;DHT22;19094;50.972;3.538;2024-01-30T00:57:49;13.40;68.70
32706;DHT22;19094;50.972;3.538;2024-01-30T01:00:15;13.40;68.70
32706;DHT22;19094;50.972;3.538;2024-01-30T01:02:42;13.40;68.80
32706;DHT22;19094;50.972;3.538;2024-01-30T01:05:09;13.40;68.80
32706;DHT22;19094;50.972;3.538;2024-01-30T01:07:34;13.40;68.80
32706;DHT22;19094;50.972;3.538;2024-01-30T01:10:00;13.40;68.80
32706;DHT22;19094;50.972;3.538;2024-01-30T01:12:26;13.40;68.80
32706;DHT22;19094;50.972;3.538;2024-01-30T01:14:52;13.40;68.70
32706;DHT22;19094;50.972;3.538;2024-01-30T01:17:18;13.40;68.80
32706;DHT22;19094;50.972;3.538;2024-01-30T01:19:44;13.40;68.70
32706;DHT22;19094;50.972;3.538;2024-01-30T01:22:10;13.40;68.70
32706;DHT22;19094;50.972;3.538;2024-01-30T01:24:36;13.40;68.70
32706;DHT22;19094;50.972;3.538;2024-01-30T01:27:02;13.40;68.60
32706;DHT22;19094;50.972;3.538;2024-01-30T01:29:28;13.40;68.70
32706;DHT22;19094;50.972;3.538;2024-01-30T01:31:58;13.40;68.80
32706;DHT22;19094;50.972;3.538;2024-01-30T01:34:24;13.40;68.80
32706;DHT22;19094;50.972;3.538;2024-01-30T01:36:50;13.40;68.80
32706;DHT22;19094;50.972;3.538;2024-01-30T01:39:17;13.40;68.70
32706;DHT22;19094;50.972;3.538;2024-01-30T01:41:43;13.40;68.70
32706;DHT22;19094;50.972;3.538;2024-01-30T01:44:09;13.40;68.80
32706;DHT22;19094;50.972;3.538;2024-01-30T01:46:35;13.40;68.80
32706;DHT22;19094;50.972;3.538;2024-01-30T01:49:02;13.40;68.80
32706;DHT22;19094;50.972;3.538;2024-01-30T01:51:29;13.40;68.70
32706;DHT22;19094;50.972;3.538;2024-01-30T01:53:57;13.40;68.80
32706;DHT22;19094;50.972;3.538;2024-01-30T01:56:24;13.50;68.70
32706;DHT22;19094;50.972;3.538;2024-01-30T01:58:51;13.40;68.70
32706;DHT22;19094;50.972;3.538;2024-01-30T02:01:19;13.40;68.80
32706;DHT22;19094;50.972;3.538;2024-01-30T02:03:46;13.40;68.90
32706;DHT22;19094;50.972;3.538;2024-01-30T02:06:13;13.40;68.80
32706;DHT22;19094;50.972;3.538;2024-01-30T02:08:40;13.50;68.80
32706;DHT22;19094;50.972;3.538;2024-01-30T02:11:06;13.40;68.90
32706;DHT22;19094;50.972;3.538;2024-01-30T02:13:32;13.40;69.00
32706;DHT22;19094;50.972;3.538;2024-01-30T02:15:58;13.40;68.90
32706;DHT22;19094;50.972;3.538;2024-01-30T02:18:24;13.50;68.80
32706;DHT22;19094;50.972;3.538;2024-01-30T02:20:50;13.50;68.70
32706;DHT22;19094;50.972;3.538;2024-01-30T02:23:19;13.50;68.80
32706;DHT22;19094;50.972;3.538;2024-01-30T02:25:45;13.50;68.90
32706;DHT22;19094;50.972;3.538;2024-01-30T02:28:14;13.50;68.70
32706;DHT22;19094;50.972;3.538;2024-01-30T02:30:40;13.50;68.90
32706;DHT22;19094;50.972;3.538;2024-01-30T02:33:08;13.50;68.80
32706;DHT22;19094;50.972;3.538;2024-01-30T02:35:33;13.50;68.90
32706;DHT22;19094;50.972;3.538;2024-01-30T02:37:59;13.50;68.90
32706;DHT22;19094;50.972;3.538;2024-01-30T02:40:25;13.50;68.90
32706;DHT22;19094;50.972;3.538;2024-01-30T02:42:51;13.50;69.00
32706;DHT22;19094;50.972;3.538;2024-01-30T02:45:17;13.50;69.00
32706;DHT22;19094;50.972;3.538;2024-01-30T02:47:42;13.50;69.20
32706;DHT22;19094;50.972;3.538;2024-01-30T02:50:08;13.50;69.10
32706;DHT22;19094;50.972;3.538;2024-01-30T02:52:34;13.50;69.20
32706;DHT22;19094;50.972;3.538;2024-01-30T02:55:00;13.50;69.20
32706;DHT22;19094;50.972;3.538;2024-01-30T02:57:26;13.50;69.30
32706;DHT22;19094;50.972;3.538;2024-01-30T02:59:52;13.50;69.20
32706;DHT22;19094;50.972;3.538;2024-01-30T03:02:17;13.40;69.30
32706;DHT22;19094;50.972;3.538;2024-01-30T03:04:43;13.50;69.30
32706;DHT22;19094;50.972;3.538;2024-01-30T03:07:09;13.50;69.30
32706;DHT22;19094;50.972;3.538;2024-01-30T03:09:37;13.40;69.30
32706;DHT22;19094;50.972;3.538;2024-01-30T03:12:03;13.40;69.40
32706;DHT22;19094;50.972;3.538;2024-01-30T03:14:31;13.50;69.40
32706;DHT22;19094;50.972;3.538;2024-01-30T03:16:57;13.40;69.30
32706;DHT22;19094;50.972;3.538;2024-01-30T03:19:23;13.50;69.40
32706;DHT22;19094;50.972;3.538;2024-01-30T03:21:49;13.40;69.50
32706;DHT22;19094;50.972;3.538;2024-01-30T03:24:14;13.50;69.40
32706;DHT22;19094;50.972;3.538;2024-01-30T03:26:40;13.40;69.40
32706;DHT22;19094;50.972;3.538;2024-01-30T03:29:06;13.40;69.60
32706;DHT22;19094;50.972;3.538;2024-01-30T03:31:31;13.40;69.50
32706;DHT22;19094;50.972;3.538;2024-01-30T03:33:57;13.40;69.40
32706;DHT22;19094;50.972;3.538;2024-01-30T03:36:23;13.50;69.50
32706;DHT22;19094;50.972;3.538;2024-01-30T03:38:49;13.40;69.60
32706;DHT22;19094;50.972;3.538;2024-01-30T03:41:14;13.40;69.60
32706;DHT22;19094;50.972;3.538;2024-01-30T03:43:40;13.40;69.60
32706;DHT22;19094;50.972;3.538;2024-01-30T03:46:06;13.40;69.60
32706;DHT22;19094;50.972;3.538;2024-01-30T03:48:32;13.40;69.60
32706;DHT22;19094;50.972;3.538;2024-01-30T03:50:58;13.40;69.60
32706;DHT22;19094;50.972;3.538;2024-01-30T03:53:24;13.40;69.40
32706;DHT22;19094;50.972;3.538;2024-01-30T03:55:49;13.40;69.50
32706;DHT22;19094;50.972;3.538;2024-01-30T03:58:15;13.40;69.70
32706;DHT22;19094;50.972;3.538;2024-01-30T04:00:40;13.40;69.60
32706;DHT22;19094;50.972;3.538;2024-01-30T04:03:06;13.40;69.80
32706;DHT22;19094;50.972;3.538;2024-01-30T04:05:33;13.40;69.70
32706;DHT22;19094;50.972;3.538;2024-01-30T04:07:59;13.40;69.50
32706;DHT22;19094;50.972;3.538;2024-01-30T04:10:25;13.40;69.80
32706;DHT22;19094;50.972;3.538;2024-01-30T04:12:51;13.40;69.90
32706;DHT22;19094;50.972;3.538;2024-01-30T04:15:17;13.40;70.00
32706;DHT22;19094;50.972;3.538;2024-01-30T04:17:44;13.30;69.90
32706;DHT22;19094;50.972;3.538;2024-01-30T04:20:15;13.40;69.80
32706;DHT22;19094;50.972;3.538;2024-01-30T04:22:44;13.40;69.80
32706;DHT22;19094;50.972;3.538;2024-01-30T04:25:10;13.40;69.60
32706;DHT22;19094;50.972;3.538;2024-01-30T04:27:36;13.40;69.60
32706;DHT22;19094;50.972;3.538;2024-01-30T04:30:02;13.40;69.70
32706;DHT22;19094;50.972;3.538;2024-01-30T04:32:27;13.40;69.60
32706;DHT22;19094;50.972;3.538;2024-01-30T04:34:53;13.50;69.70
32706;DHT22;19094;50.972;3.538;2024-01-30T04:37:18;13.40;69.90
32706;DHT22;19094;50.972;3.538;2024-01-30T04:39:44;13.40;69.90
32706;DHT22;19094;50.972;3.538;2024-01-30T04:42:10;13.40;69.90
32706;DHT22;19094;50.972;3.538;2024-01-30T04:44:35;13.40;70.00
32706;DHT22;19094;50.972;3.538;2024-01-30T04:47:01;13.40;70.10
32706;DHT22;19094;50.972;3.538;2024-01-30T04:49:27;13.40;69.90
32706;DHT22;19094;50.972;3.538;2024-01-30T04:51:54;13.40;70.00
32706;DHT22;19094;50.972;3.538;2024-01-30T04:54:20;13.40;70.00
32706;DHT22;19094;50.972;3.538;2024-01-30T04:56:45;13.40;69.90
32706;DHT22;19094;50.972;3.538;2024-01-30T04:59:11;13.50;69.70
32706;DHT22;19094;50.972;3.538;2024-01-30T05:01:37;13.50;69.60
32706;DHT22;19094;50.972;3.538;2024-01-30T05:04:03;13.50;69.80
32706;DHT22;19094;50.972;3.538;2024-01-30T05:06:29;13.40;69.90
32706;DHT22;19094;50.972;3.538;2024-01-30T05:08:55;13.40;69.90
32706;DHT22;19094;50.972;3.538;2024-01-30T05:11:21;13.40;69.80
32706;DHT22;19094;50.972;3.538;2024-01-30T05:13:47;13.40;69.80
32706;DHT22;19094;50.972;3.538;2024-01-30T05:16:13;13.40;69.90
32706;DHT22;19094;50.972;3.538;2024-01-30T05:18:38;13.40;69.80
32706;DHT22;19094;50.972;3.538;2024-01-30T05:21:05;13.40;69.90
32706;DHT22;19094;50.972;3.538;2024-01-30T05:23:31;13.40;69.90
32706;DHT22;19094;50.972;3.538;2024-01-30T05:25:56;13.40;70.10
32706;DHT22;19094;50.972;3.538;2024-01-30T05:28:22;13.30;70.20
32706;DHT22;19094;50.972;3.538;2024-01-30T05:30:48;13.30;70.30
32706;DHT22;19094;50.972;3.538;2024-01-30T05:33:13;13.30;70.20
32706;DHT22;19094;50.972;3.538;2024-01-30T05:35:39;13.30;70.10
32706;DHT22;19094;50.972;3.538;2024-01-30T05:38:05;13.40;70.00
32706;DHT22;19094;50.972;3.538;2024-01-30T05:40:30;13.40;70.00
32706;DHT22;19094;50.972;3.538;2024-01-30T05:42:57;13.40;69.80
32706;DHT22;19094;50.972;3.538;2024-01-30T05:45:26;13.40;70.00
32706;DHT22;19094;50.972;3.538;2024-01-30T05:47:52;13.40;70.10
32706;DHT22;19094;50.972;3.538;2024-01-30T05:50:18;13.40;69.90
32706;DHT22;19094;50.972;3.538;2024-01-30T05:52:44;13.40;69.90
32706;DHT22;19094;50.972;3.538;2024-01-30T05:55:11;13.40;69.90
32706;DHT22;19094;50.972;3.538;2024-01-30T05:57:37;13.40;70.10
32706;DHT22;19094;50.972;3.538;2024-01-30T06:00:04;13.40;70.20
32706;DHT22;19094;50.972;3.538;2024-01-30T06:02:30;13.40;70.20
32706;DHT22;19094;50.972;3.538;2024-01-30T06:04:56;13.40;70.20
32706;DHT22;19094;50.972;3.538;2024-01-30T06:07:22;13.40;70.30
32706;DHT22;19094;50.972;3.538;2024-01-30T06:09:48;13.40;70.10
32706;DHT22;19094;50.972;3.538;2024-01-30T06:12:13;13.40;70.10
32706;DHT22;19094;50.972;3.538;2024-01-30T06:14:39;13.40;70.30
32706;DHT22;19094;50.972;3.538;2024-01-30T06:17:05;13.40;70.20
32706;DHT22;19094;50.972;3.538;2024-01-30T06:19:30;13.40;70.10
32706;DHT22;19094;50.972;3.538;2024-01-30T06:21:57;13.40;70.90
32706;DHT22;19094;50.972;3.538;2024-01-30T06:24:22;13.40;70.10
32706;DHT22;19094;50.972;3.538;2024-01-30T06:26:48;13.40;70.00
32706;DHT22;19094;50.972;3.538;2024-01-30T06:29:14;13.40;70.00
32706;DHT22;19094;50.972;3.538;2024-01-30T06:31:43;13.50;70.10
32706;DHT22;19094;50.972;3.538;2024-01-30T06:34:09;13.40;70.10
32706;DHT22;19094;50.972;3.538;2024-01-30T06:36:36;13.40;70.20
32706;DHT22;19094;50.972;3.538;2024-01-30T06:39:02;13.50;70.20
32706;DHT22;19094;50.972;3.538;2024-01-30T06:41:28;13.50;70.10
32706;DHT22;19094;50.972;3.538;2024-01-30T06:43:54;13.50;70.20
32706;DHT22;19094;50.972;3.538;2024-01-30T06:46:19;13.40;70.30
32706;DHT22;19094;50.972;3.538;2024-01-30T06:48:45;13.50;70.30
32706;DHT22;19094;50.972;3.538;2024-01-30T06:51:11;13.50;70.20
32706;DHT22;19094;50.972;3.538;2024-01-30T06:53:37;13.50;70.20
32706;DHT22;19094;50.972;3.538;2024-01-30T06:56:03;13.50;70.50
32706;DHT22;19094;50.972;3.538;2024-01-30T06:58:29;13.70;71.70
32706;DHT22;19094;50.972;3.538;2024-01-30T07:00:55;13.60;70.80
32706;DHT22;19094;50.972;3.538;2024-01-30T07:03:21;13.70;70.70
32706;DHT22;19094;50.972;3.538;2024-01-30T07:05:47;13.60;71.30
32706;DHT22;19094;50.972;3.538;2024-01-30T07:08:13;13.60;71.30
32706;DHT22;19094;50.972;3.538;2024-01-30T07:10:38;13.60;71.30
32706;DHT22;19094;50.972;3.538;2024-01-30T07:13:04;13.50;71.30
32706;DHT22;19094;50.972;3.538;2024-01-30T07:15:31;13.60;71.30
32706;DHT22;19094;50.972;3.538;2024-01-30T07:17:57;13.60;71.30
32706;DHT22;19094;50.972;3.538;2024-01-30T07:20:22;13.60;71.10
32706;DHT22;19094;50.972;3.538;2024-01-30T07:22:49;13.60;70.90
32706;DHT22;19094;50.972;3.538;2024-01-30T07:25:15;13.70;71.10
32706;DHT22;19094;50.972;3.538;2024-01-30T07:27:42;13.60;70.90
32706;DHT22;19094;50.972;3.538;2024-01-30T07:30:08;13.60;71.30
32706;DHT22;19094;50.972;3.538;2024-01-30T07:32:33;13.60;71.30
32706;DHT22;19094;50.972;3.538;2024-01-30T07:34:59;13.60;71.30
32706;DHT22;19094;50.972;3.538;2024-01-30T07:37:25;13.60;71.40
32706;DHT22;19094;50.972;3.538;2024-01-30T07:39:50;13.50;71.40
32706;DHT22;19094;50.972;3.538;2024-01-30T07:42:16;13.50;71.40
32706;DHT22;19094;50.972;3.538;2024-01-30T07:44:43;13.50;71.50
32706;DHT22;19094;50.972;3.538;2024-01-30T07:47:08;13.50;71.40
32706;DHT22;19094;50.972;3.538;2024-01-30T07:49:34;13.50;71.50
32706;DHT22;19094;50.972;3.538;2024-01-30T07:52:00;13.50;72.20
32706;DHT22;19094;50.972;3.538;2024-01-30T07:54:26;13.50;71.30
32706;DHT22;19094;50.972;3.538;2024-01-30T07:56:51;13.50;72.10
32706;DHT22;19094;50.972;3.538;2024-01-30T07:59:17;13.60;71.40
32706;DHT22;19094;50.972;3.538;2024-01-30T08:01:45;13.50;71.50
32706;DHT22;19094;50.972;3.538;2024-01-30T08:04:10;13.50;71.50
32706;DHT22;19094;50.972;3.538;2024-01-30T08:06:36;13.50;71.50
32706;DHT22;19094;50.972;3.538;2024-01-30T08:09:02;13.50;71.40
32706;DHT22;19094;50.972;3.538;2024-01-30T08:11:28;13.50;71.40
32706;DHT22;19094;50.972;3.538;2024-01-30T08:13:55;13.50;71.50
32706;DHT22;19094;50.972;3.538;2024-01-30T08:16:20;13.50;71.60
32706;DHT22;19094;50.972;3.538;2024-01-30T08:18:46;13.50;71.50
32706;DHT22;19094;50.972;3.538;2024-01-30T08:21:12;13.50;71.70
32706;DHT22;19094;50.972;3.538;2024-01-30T08:23:39;13.50;71.70
32706;DHT22;19094;50.972;3.538;2024-01-30T08:26:05;13.50;71.70
32706;DHT22;19094;50.972;3.538;2024-01-30T08:28:31;13.50;72.50
32706;DHT22;19094;50.972;3.538;2024-01-30T08:30:57;13.50;72.10
32706;DHT22;19094;50.972;3.538;2024-01-30T08:33:22;13.40;72.10
32706;DHT22;19094;50.972;3.538;2024-01-30T08:35:48;13.40;72.10
32706;DHT22;19094;50.972;3.538;2024-01-30T08:38:14;13.40;72.10
32706;DHT22;19094;50.972;3.538;2024-01-30T08:40:40;13.50;71.90
32706;DHT22;19094;50.972;3.538;2024-01-30T08:43:05;13.50;72.00
32706;DHT22;19094;50.972;3.538;2024-01-30T08:45:31;13.50;71.70
32706;DHT22;19094;50.972;3.538;2024-01-30T08:47:57;13.50;71.60
32706;DHT22;19094;50.972;3.538;2024-01-30T08:50:23;13.50;71.60
32706;DHT22;19094;50.972;3.538;2024-01-30T08:52:48;13.50;71.70
32706;DHT22;19094;50.972;3.538;2024-01-30T08:55:14;13.50;71.70
32706;DHT22;19094;50.972;3.538;2024-01-30T08:57:40;13.40;72.50
32706;DHT22;19094;50.972;3.538;2024-01-30T09:00:06;13.50;71.70
32706;DHT22;19094;50.972;3.538;2024-01-30T09:02:34;13.50;71.50
32706;DHT22;19094;50.972;3.538;2024-01-30T09:05:00;13.50;71.30
32706;DHT22;19094;50.972;3.538;2024-01-30T09:07:25;13.50;71.50
32706;DHT22;19094;50.972;3.538;2024-01-30T09:09:51;13.50;71.30
32706;DHT22;19094;50.972;3.538;2024-01-30T09:12:17;13.50;71.30
32706;DHT22;19094;50.972;3.538;2024-01-30T09:14:42;13.50;71.30
32706;DHT22;19094;50.972;3.538;2024-01-30T09:17:08;13.50;71.20
32706;DHT22;19094;50.972;3.538;2024-01-30T09:19:34;13.50;71.10
32706;DHT22;19094;50.972;3.538;2024-01-30T09:22:00;13.50;71.00
32706;DHT22;19094;50.972;3.538;2024-01-30T09:24:26;13.50;71.00
32706;DHT22;19094;50.972;3.538;2024-01-30T09:26:52;13.50;70.70
32706;DHT22;19094;50.972;3.538;2024-01-30T09:29:18;13.50;70.50
32706;DHT22;19094;50.972;3.538;2024-01-30T09:31:47;13.50;70.50
32706;DHT22;19094;50.972;3.538;2024-01-30T09:34:13;13.50;70.80
32706;DHT22;19094;50.972;3.538;2024-01-30T09:36:39;13.50;70.30
32706;DHT22;19094;50.972;3.538;2024-01-30T09:39:05;13.50;70.20
32706;DHT22;19094;50.972;3.538;2024-01-30T09:42:26;13.50;70.20
32706;DHT22;19094;50.972;3.538;2024-01-30T09:44:32;13.50;70.20
32706;DHT22;19094;50.972;3.538;2024-01-30T09:47:00;13.40;70.20
32706;DHT22;19094;50.972;3.538;2024-01-30T09:49:33;13.50;70.80
32706;DHT22;19094;50.972;3.538;2024-01-30T09:52:00;13.50;69.90
32706;DHT22;19094;50.972;3.538;2024-01-30T09:54:26;13.50;69.90
32706;DHT22;19094;50.972;3.538;2024-01-30T09:56:51;13.40;69.80
32706;DHT22;19094;50.972;3.538;2024-01-30T09:59:17;13.50;69.60
32706;DHT22;19094;50.972;3.538;2024-01-30T10:01:43;13.40;69.60
32706;DHT22;19094;50.972;3.538;2024-01-30T10:04:09;13.40;69.60
32706;DHT22;19094;50.972;3.538;2024-01-30T10:06:35;13.40;69.60
32706;DHT22;19094;50.972;3.538;2024-01-30T10:09:01;13.40;69.60
32706;DHT22;19094;50.972;3.538;2024-01-30T10:11:27;13.40;69.60
32706;DHT22;19094;50.972;3.538;2024-01-30T10:13:53;13.40;69.40
32706;DHT22;19094;50.972;3.538;2024-01-30T10:16:19;13.40;69.30
32706;DHT22;19094;50.972;3.538;2024-01-30T10:18:44;13.40;69.30
32706;DHT22;19094;50.972;3.538;2024-01-30T10:21:10;13.40;69.20
32706;DHT22;19094;50.972;3.538;2024-01-30T10:23:36;13.40;69.20
32706;DHT22;19094;50.972;3.538;2024-01-30T10:26:07;13.40;69.20
32706;DHT22;19094;50.972;3.538;2024-01-30T10:28:33;13.50;69.20
32706;DHT22;19094;50.972;3.538;2024-01-30T10:31:02;13.50;69.20
32706;DHT22;19094;50.972;3.538;2024-01-30T10:33:31;13.40;69.10
32706;DHT22;19094;50.972;3.538;2024-01-30T10:36:02;13.50;69.10
32706;DHT22;19094;50.972;3.538;2024-01-30T10:38:32;13.50;69.10
32706;DHT22;19094;50.972;3.538;2024-01-30T10:40:59;13.50;69.00
32706;DHT22;19094;50.972;3.538;2024-01-30T10:43:35;13.50;69.00
32706;DHT22;19094;50.972;3.538;2024-01-30T10:46:19;13.50;68.80
32706;DHT22;19094;50.972;3.538;2024-01-30T10:48:50;13.50;68.70
32706;DHT22;19094;50.972;3.538;2024-01-30T10:51:19;13.50;68.70
32706;DHT22;19094;50.972;3.538;2024-01-30T10:53:46;13.50;68.70
32706;DHT22;19094;50.972;3.538;2024-01-30T10:56:13;13.50;68.70
32706;DHT22;19094;50.972;3.538;2024-01-30T10:58:39;13.50;68.60
32706;DHT22;19094;50.972;3.538;2024-01-30T11:01:06;13.50;68.50
32706;DHT22;19094;50.972;3.538;2024-01-30T11:03:33;13.50;68.70
32706;DHT22;19094;50.972;3.538;2024-01-30T11:06:02;13.50;68.00
32706;DHT22;19094;50.972;3.538;2024-01-30T11:08:28;13.60;68.40
32706;DHT22;19094;50.972;3.538;2024-01-30T11:10:58;13.50;68.40
32706;DHT22;19094;50.972;3.538;2024-01-30T11:13:31;13.50;68.30
32706;DHT22;19094;50.972;3.538;2024-01-30T11:16:04;13.50;68.30
32706;DHT22;19094;50.972;3.538;2024-01-30T11:18:31;13.50;68.20
32706;DHT22;19094;50.972;3.538;2024-01-30T11:20:58;13.50;68.20
32706;DHT22;19094;50.972;3.538;2024-01-30T11:23:26;13.50;68.20
32706;DHT22;19094;50.972;3.538;2024-01-30T11:25:56;13.50;68.10
32706;DHT22;19094;50.972;3.538;2024-01-30T11:28:22;13.60;68.10
32706;DHT22;19094;50.972;3.538;2024-01-30T11:30:48;13.60;68.00
32706;DHT22;19094;50.972;3.538;2024-01-30T11:33:30;13.60;67.90
32706;DHT22;19094;50.972;3.538;2024-01-30T11:35:58;13.60;67.90
32706;DHT22;19094;50.972;3.538;2024-01-30T11:38:26;13.60;67.80
32706;DHT22;19094;50.972;3.538;2024-01-30T11:40:56;13.60;67.70
32706;DHT22;19094;50.972;3.538;2024-01-30T11:43:25;13.60;67.60
32706;DHT22;19094;50.972;3.538;2024-01-30T11:45:51;13.60;67.80
32706;DHT22;19094;50.972;3.538;2024-01-30T11:48:17;13.60;67.60
32706;DHT22;19094;50.972;3.538;2024-01-30T11:50:43;13.50;67.60
32706;DHT22;19094;50.972;3.538;2024-01-30T11:53:12;13.60;68.60
32706;DHT22;19094;50.972;3.538;2024-01-30T11:55:37;13.70;70.10
32706;DHT22;19094;50.972;3.538;2024-01-30T11:58:04;13.70;69.70
32706;DHT22;19094;50.972;3.538;2024-01-30T12:00:30;13.70;69.10
32706;DHT22;19094;50.972;3.538;2024-01-30T12:02:58;13.70;69.00
32706;DHT22;19094;50.972;3.538;2024-01-30T12:05:26;13.70;68.80
32706;DHT22;19094;50.972;3.538;2024-01-30T12:07:52;13.60;68.70
32706;DHT22;19094;50.972;3.538;2024-01-30T12:10:19;13.60;68.80
32706;DHT22;19094;50.972;3.538;2024-01-30T12:12:50;13.60;68.80
32706;DHT22;19094;50.972;3.538;2024-01-30T12:15:17;13.50;68.80
32706;DHT22;19094;50.972;3.538;2024-01-30T12:17:43;13.50;68.90
32706;DHT22;19094;50.972;3.538;2024-01-30T12:20:13;13.50;68.60
32706;DHT22;19094;50.972;3.538;2024-01-30T12:22:43;13.50;68.40
32706;DHT22;19094;50.972;3.538;2024-01-30T12:25:10;13.50;68.70
32706;DHT22;19094;50.972;3.538;2024-01-30T12:27:36;13.50;68.70
32706;DHT22;19094;50.972;3.538;2024-01-30T12:30:10;13.40;68.50
32706;DHT22;19094;50.972;3.538;2024-01-30T12:32:39;13.40;68.60
32706;DHT22;19094;50.972;3.538;2024-01-30T12:35:15;13.40;68.40
32706;DHT22;19094;50.972;3.538;2024-01-30T12:37:43;13.40;68.20
32706;DHT22;19094;50.972;3.538;2024-01-30T12:40:09;13.40;68.10
32706;DHT22;19094;50.972;3.538;2024-01-30T12:42:35;13.40;68.30
32706;DHT22;19094;50.972;3.538;2024-01-30T12:45:05;13.40;67.90
32706;DHT22;19094;50.972;3.538;2024-01-30T12:47:31;13.40;68.00
32706;DHT22;19094;50.972;3.538;2024-01-30T12:49:57;13.40;67.70
32706;DHT22;19094;50.972;3.538;2024-01-30T12:52:23;13.40;67.80
32706;DHT22;19094;50.972;3.538;2024-01-30T12:54:49;13.40;67.80
32706;DHT22;19094;50.972;3.538;2024-01-30T12:57:15;13.40;67.80
32706;DHT22;19094;50.972;3.538;2024-01-30T12:59:42;13.40;67.70
32706;DHT22;19094;50.972;3.538;2024-01-30T13:02:08;13.40;68.10
32706;DHT22;19094;50.972;3.538;2024-01-30T13:04:34;13.30;67.60
32706;DHT22;19094;50.972;3.538;2024-01-30T13:07:00;13.40;67.80
32706;DHT22;19094;50.972;3.538;2024-01-30T13:09:26;13.40;67.70
32706;DHT22;19094;50.972;3.538;2024-01-30T13:11:52;13.40;67.60
32706;DHT22;19094;50.972;3.538;2024-01-30T13:14:19;13.40;67.60
32706;DHT22;19094;50.972;3.538;2024-01-30T13:16:44;13.40;67.70
32706;DHT22;19094;50.972;3.538;2024-01-30T13:19:10;13.40;67.80
32706;DHT22;19094;50.972;3.538;2024-01-30T13:21:36;13.40;67.60
32706;DHT22;19094;50.972;3.538;2024-01-30T13:24:03;13.40;67.70
32706;DHT22;19094;50.972;3.538;2024-01-30T13:26:29;13.40;67.70
32706;DHT22;19094;50.972;3.538;2024-01-30T13:28:56;13.40;67.50
32706;DHT22;19094;50.972;3.538;2024-01-30T13:31:22;13.30;67.60
32706;DHT22;19094;50.972;3.538;2024-01-30T13:33:47;13.30;67.60
32706;DHT22;19094;50.972;3.538;2024-01-30T13:36:14;13.30;67.90
32706;DHT22;19094;50.972;3.538;2024-01-30T13:38:41;13.40;67.70
32706;DHT22;19094;50.972;3.538;2024-01-30T13:41:07;13.30;67.40
32706;DHT22;19094;50.972;3.538;2024-01-30T13:43:33;13.30;67.80
32706;DHT22;19094;50.972;3.538;2024-01-30T13:45:59;13.30;67.40
32706;DHT22;19094;50.972;3.538;2024-01-30T13:48:24;13.40;67.60
32706;DHT22;19094;50.972;3.538;2024-01-30T13:50:50;13.30;67.40
32706;DHT22;19094;50.972;3.538;2024-01-30T13:53:16;13.30;67.40
32706;DHT22;19094;50.972;3.538;2024-01-30T13:55:42;13.30;67.40
32706;DHT22;19094;50.972;3.538;2024-01-30T13:58:07;13.40;67.30
32706;DHT22;19094;50.972;3.538;2024-01-30T14:00:33;13.40;67.40
32706;DHT22;19094;50.972;3.538;2024-01-30T14:02:59;13.40;67.20
32706;DHT22;19094;50.972;3.538;2024-01-30T14:05:26;13.30;67.40
32706;DHT22;19094;50.972;3.538;2024-01-30T14:07:53;13.30;67.40
32706;DHT22;19094;50.972;3.538;2024-01-30T14:10:19;13.30;67.60
32706;DHT22;19094;50.972;3.538;2024-01-30T14:12:45;13.30;67.70
32706;DHT22;19094;50.972;3.538;2024-01-30T14:15:13;13.30;67.60
32706;DHT22;19094;50.972;3.538;2024-01-30T14:17:40;13.30;67.70
32706;DHT22;19094;50.972;3.538;2024-01-30T14:20:07;13.30;67.60
32706;DHT22;19094;50.972;3.538;2024-01-30T14:22:36;13.30;67.70
32706;DHT22;19094;50.972;3.538;2024-01-30T14:25:02;13.30;67.90
32706;DHT22;19094;50.972;3.538;2024-01-30T14:27:32;13.30;67.80
32706;DHT22;19094;50.972;3.538;2024-01-30T14:29:57;13.30;68.30
32706;DHT22;19094;50.972;3.538;2024-01-30T14:32:24;13.30;68.10
32706;DHT22;19094;50.972;3.538;2024-01-30T14:34:51;13.40;68.20
32706;DHT22;19094;50.972;3.538;2024-01-30T14:37:17;13.40;68.10
32706;DHT22;19094;50.972;3.538;2024-01-30T14:39:43;13.40;68.10
32706;DHT22;19094;50.972;3.538;2024-01-30T14:42:09;13.40;68.20
32706;DHT22;19094;50.972;3.538;2024-01-30T14:44:35;13.40;68.20
32706;DHT22;19094;50.972;3.538;2024-01-30T14:47:01;13.40;68.60
32706;DHT22;19094;50.972;3.538;2024-01-30T14:49:27;13.40;68.60
32706;DHT22;19094;50.972;3.538;2024-01-30T14:51:53;13.40;68.50
32706;DHT22;19094;50.972;3.538;2024-01-30T14:54:18;13.40;68.60
32706;DHT22;19094;50.972;3.538;2024-01-30T14:56:44;13.40;68.70
32706;DHT22;19094;50.972;3.538;2024-01-30T14:59:10;13.30;69.10
32706;DHT22;19094;50.972;3.538;2024-01-30T15:01:36;13.30;69.20
32706;DHT22;19094;50.972;3.538;2024-01-30T15:04:02;13.30;68.90
32706;DHT22;19094;50.972;3.538;2024-01-30T15:06:28;13.40;69.00
32706;DHT22;19094;50.972;3.538;2024-01-30T15:08:54;13.30;69.60
32706;DHT22;19094;50.972;3.538;2024-01-30T15:11:20;13.30;69.00
32706;DHT22;19094;50.972;3.538;2024-01-30T15:13:45;13.30;68.60
32706;DHT22;19094;50.972;3.538;2024-01-30T15:16:11;13.30;69.10
32706;DHT22;19094;50.972;3.538;2024-01-30T15:18:37;13.30;68.90
32706;DHT22;19094;50.972;3.538;2024-01-30T15:21:03;13.30;68.80
32706;DHT22;19094;50.972;3.538;2024-01-30T15:23:29;13.30;68.70
32706;DHT22;19094;50.972;3.538;2024-01-30T15:25:54;13.30;68.70